createdAt,value
2018-11-10T00:01:55.324Z,95351.00
2018-11-10T00:04:25.810Z,95349.00
2018-11-10T00:06:56.106Z,95343.00
2018-11-10T00:09:26.910Z,95332.00
2018-11-10T00:11:57.204Z,95341.00
2018-11-10T00:14:28.181Z,95337.00
2018-11-10T00:16:59.603Z,95340.00
2018-11-10T00:19:30.454Z,95325.00
2018-11-10T00:22:01.159Z,95330.00
2018-11-10T00:24:31.819Z,95335.00
2018-11-10T00:27:02.511Z,95333.00
2018-11-10T00:29:33.178Z,95327.00
2018-11-10T00:32:03.561Z,95231.00
2018-11-10T00:34:33.977Z,95330.00
2018-11-10T00:37:04.291Z,95328.00
2018-11-10T00:39:34.679Z,95331.00
2018-11-10T00:42:05.577Z,95320.00
2018-11-10T00:44:36.317Z,95314.00
2018-11-10T00:47:11.166Z,95322.00
2018-11-10T00:49:42.252Z,95323.00
2018-11-10T00:52:15.851Z,95314.00
2018-11-10T00:54:46.782Z,95316.00
2018-11-10T00:57:17.659Z,95317.00
2018-11-10T00:59:48.255Z,95323.00
2018-11-10T01:02:18.701Z,95322.00
2018-11-10T01:04:50.227Z,95314.00
2018-11-10T01:07:20.760Z,95313.00
2018-11-10T01:09:52.723Z,95317.00
2018-11-10T01:12:23.787Z,95302.00
2018-11-10T01:14:54.787Z,95309.00
2018-11-10T01:17:31.737Z,95311.00
2018-11-10T01:20:27.063Z,95309.00
2018-11-10T01:23:06.833Z,95313.00
2018-11-10T01:25:46.145Z,95314.00
2018-11-10T01:28:18.726Z,95309.00
2018-11-10T01:31:03.843Z,95309.00
2018-11-10T01:33:58.238Z,95312.00
2018-11-10T01:36:45.699Z,95311.00
2018-11-10T01:42:37.067Z,95307.00
2018-11-10T01:45:20.335Z,95297.00
2018-11-10T01:48:00.541Z,95295.00
2018-11-10T01:50:34.955Z,95293.00
2018-11-10T01:53:08.652Z,95288.00
2018-11-10T01:55:47.638Z,95284.00
2018-11-10T01:58:20.946Z,95283.00
2018-11-10T02:00:51.199Z,95277.00
2018-11-10T02:03:21.947Z,94928.00
2018-11-10T02:05:52.491Z,95273.00
2018-11-10T02:08:22.867Z,95270.00
2018-11-10T02:10:53.152Z,95268.00
2018-11-10T02:13:23.536Z,95264.00
2018-11-10T02:15:53.872Z,95277.00
2018-11-10T02:18:24.302Z,95270.00
2018-11-10T02:20:54.593Z,95257.00
2018-11-10T02:23:25.325Z,95259.00
2018-11-10T02:26:01.367Z,95247.00
2018-11-10T02:28:31.711Z,95240.00
2018-11-10T02:31:02.026Z,95243.00
2018-11-10T02:33:32.336Z,95243.00
2018-11-10T02:36:02.690Z,95252.00
2018-11-10T02:38:33.042Z,95255.00
2018-11-10T02:41:03.394Z,95248.00
2018-11-10T02:43:33.757Z,95258.00
2018-11-10T02:46:04.128Z,95244.00
2018-11-10T02:48:34.450Z,95248.00
2018-11-10T02:51:04.972Z,95249.00
2018-11-10T02:53:35.386Z,95238.00
2018-11-10T02:56:05.949Z,95243.00
2018-11-10T02:58:37.093Z,95247.00
2018-11-10T03:01:07.561Z,95239.00
2018-11-10T03:03:38.074Z,95236.00
2018-11-10T03:06:08.791Z,95236.00
2018-11-10T03:08:39.158Z,95243.00
2018-11-10T03:11:09.688Z,95236.00
2018-11-10T03:13:40.549Z,95236.00
2018-11-10T03:16:11.098Z,95239.00
2018-11-10T03:18:41.477Z,95232.00
2018-11-10T03:21:11.935Z,95227.00
2018-11-10T03:23:42.358Z,95232.00
2018-11-10T03:26:12.718Z,95230.00
2018-11-10T03:28:43.254Z,95222.00
2018-11-10T03:31:13.714Z,95231.00
2018-11-10T03:33:44.140Z,95228.00
2018-11-10T03:36:14.766Z,95221.00
2018-11-10T03:38:45.329Z,95222.00
2018-11-10T03:41:16.125Z,95220.00
2018-11-10T03:43:46.749Z,95224.00
2018-11-10T03:46:17.202Z,95215.00
2018-11-10T03:48:48.064Z,95206.00
2018-11-10T03:51:18.370Z,95208.00
2018-11-10T03:53:49.138Z,95208.00
2018-11-10T03:56:19.566Z,95192.00
2018-11-10T03:58:50.051Z,95193.00
2018-11-10T04:01:20.427Z,95196.00
2018-11-10T04:03:50.823Z,95201.00
2018-11-10T04:06:21.485Z,95205.00
2018-11-10T04:08:51.973Z,95202.00
2018-11-10T04:11:22.567Z,95190.00
2018-11-10T04:13:53.174Z,95192.00
2018-11-10T04:16:23.731Z,95193.00
2018-11-10T04:18:54.418Z,95198.00
2018-11-10T04:21:24.930Z,95182.00
2018-11-10T04:23:55.379Z,95185.00
2018-11-10T04:26:25.924Z,95184.00
2018-11-10T04:28:56.309Z,95187.00
2018-11-10T04:31:26.793Z,95187.00
2018-11-10T04:33:57.330Z,95160.00
2018-11-10T04:36:28.273Z,95159.00
2018-11-10T04:38:58.822Z,95171.00
2018-11-10T04:41:29.193Z,95156.00
2018-11-10T04:43:59.630Z,95160.00
2018-11-10T04:46:30.225Z,95151.00
2018-11-10T04:49:02.763Z,95159.00
2018-11-10T04:51:33.094Z,95152.00
2018-11-10T04:54:03.591Z,95152.00
2018-11-10T04:56:34.046Z,95157.00
2018-11-10T04:59:04.418Z,95171.00
2018-11-10T05:01:34.842Z,95167.00
2018-11-10T05:04:05.601Z,95178.00
2018-11-10T05:06:36.035Z,95178.00
2018-11-10T05:09:08.577Z,95173.00
2018-11-10T05:11:39.155Z,95174.00
2018-11-10T05:14:09.826Z,95184.00
2018-11-10T05:16:40.247Z,95177.00
2018-11-10T05:19:10.598Z,95178.00
2018-11-10T05:21:41.021Z,95177.00
2018-11-10T05:24:11.431Z,95162.00
2018-11-10T05:26:47.374Z,95169.00
2018-11-10T05:29:17.930Z,95172.00
2018-11-10T05:31:48.534Z,95167.00
2018-11-10T05:34:19.250Z,95169.00
2018-11-10T05:36:49.719Z,95173.00
2018-11-10T05:39:20.169Z,95169.00
2018-11-10T05:41:51.816Z,95172.00
2018-11-10T05:44:22.325Z,95159.00
2018-11-10T05:46:52.849Z,95166.00
2018-11-10T05:49:23.188Z,95160.00
2018-11-10T05:51:53.701Z,95154.00
2018-11-10T05:54:24.113Z,95151.00
2018-11-10T05:56:54.552Z,95154.00
2018-11-10T05:59:24.923Z,95149.00
2018-11-10T06:01:55.316Z,95142.00
2018-11-10T06:04:26.568Z,95144.00
2018-11-10T06:07:00.896Z,95134.00
2018-11-10T06:09:31.482Z,95138.00
2018-11-10T06:12:02.202Z,95125.00
2018-11-10T06:14:34.572Z,95099.00
2018-11-10T06:17:05.224Z,95095.00
2018-11-10T06:19:35.534Z,95101.00
2018-11-10T06:22:05.999Z,95121.00
2018-11-10T06:24:36.865Z,95138.00
2018-11-10T06:27:07.286Z,95144.00
2018-11-10T06:29:37.685Z,95142.00
2018-11-10T06:32:08.533Z,95133.00
2018-11-10T06:34:39.125Z,95150.00
2018-11-10T06:37:09.577Z,95155.00
2018-11-10T06:39:40.140Z,95134.00
2018-11-10T06:42:10.602Z,95152.00
2018-11-10T06:44:41.026Z,95149.00
2018-11-10T06:47:11.691Z,95149.00
2018-11-10T06:49:42.182Z,95148.00
2018-11-10T06:52:13.051Z,95150.00
2018-11-10T06:54:43.398Z,95148.00
2018-11-10T06:57:14.280Z,95161.00
2018-11-10T06:59:44.713Z,95165.00
2018-11-10T07:02:15.096Z,95160.00
2018-11-10T07:04:45.498Z,95158.00
2018-11-10T07:07:15.874Z,95170.00
2018-11-10T07:09:46.343Z,95168.00
2018-11-10T07:12:16.776Z,95160.00
2018-11-10T07:14:47.130Z,95169.00
2018-11-10T07:17:17.602Z,95153.00
2018-11-10T07:19:47.934Z,95166.00
2018-11-10T07:22:18.331Z,95162.00
2018-11-10T07:24:48.770Z,95163.00
2018-11-10T07:27:19.122Z,95160.00
2018-11-10T07:29:49.505Z,95167.00
2018-11-10T07:32:19.855Z,95174.00
2018-11-10T07:34:50.311Z,95172.00
2018-11-10T07:37:20.890Z,95167.00
2018-11-10T07:39:51.215Z,95167.00
2018-11-10T07:42:21.673Z,95165.00
2018-11-10T07:44:52.191Z,95177.00
2018-11-10T07:47:22.603Z,95176.00
2018-11-10T07:49:53.080Z,95168.00
2018-11-10T07:52:23.470Z,95172.00
2018-11-10T07:54:54.202Z,95166.00
2018-11-10T07:57:24.561Z,95161.00
2018-11-10T07:59:55.053Z,95167.00
2018-11-10T08:02:25.755Z,95162.00
2018-11-10T08:04:56.334Z,95167.00
2018-11-10T08:07:26.814Z,95167.00
2018-11-10T08:09:58.606Z,95171.00
2018-11-10T08:12:28.913Z,95169.00
2018-11-10T08:14:59.388Z,95163.00
2018-11-10T08:17:29.804Z,95157.00
2018-11-10T08:20:08.878Z,95164.00
2018-11-10T08:22:39.526Z,95162.00
2018-11-10T08:25:12.681Z,95164.00
2018-11-10T08:27:43.379Z,95162.00
2018-11-10T08:30:14.773Z,95143.00
2018-11-10T08:32:45.405Z,95148.00
2018-11-10T08:35:16.126Z,95148.00
2018-11-10T08:37:48.632Z,95145.00
2018-11-10T08:40:19.166Z,95144.00
2018-11-10T08:42:49.612Z,95141.00
2018-11-10T08:45:20.090Z,95144.00
2018-11-10T08:47:50.730Z,95142.00
2018-11-10T08:50:21.383Z,95143.00
2018-11-10T08:52:51.887Z,95138.00
2018-11-10T08:55:22.455Z,95133.00
2018-11-10T08:57:53.096Z,95137.00
2018-11-10T09:00:23.661Z,95134.00
2018-11-10T09:02:54.077Z,95131.00
2018-11-10T09:05:24.790Z,95132.00
2018-11-10T09:07:56.315Z,95130.00
2018-11-10T09:10:29.928Z,95139.00
2018-11-10T09:13:00.859Z,95163.00
2018-11-10T09:15:32.141Z,95168.00
2018-11-10T09:18:10.226Z,95163.00
2018-11-10T09:20:41.687Z,95166.00
2018-11-10T09:23:12.609Z,95158.00
2018-11-10T09:25:45.951Z,95170.00
2018-11-10T09:28:19.521Z,95171.00
2018-11-10T09:30:54.682Z,95154.00
2018-11-10T09:33:26.322Z,95166.00
2018-11-10T09:35:58.773Z,95164.00
2018-11-10T09:41:36.294Z,95166.00
2018-11-10T09:44:07.529Z,95165.00
2018-11-10T09:46:40.565Z,95166.00
2018-11-10T09:49:12.208Z,95164.00
2018-11-10T09:51:42.824Z,95167.00
2018-11-10T09:54:13.490Z,95160.00
2018-11-10T09:56:44.470Z,95163.00
2018-11-10T09:59:15.601Z,95155.00
2018-11-10T10:01:46.144Z,95153.00
2018-11-10T10:04:17.453Z,95155.00
2018-11-10T10:06:48.056Z,95142.00
2018-11-10T10:09:19.599Z,95145.00
2018-11-10T10:11:53.258Z,95146.00
2018-11-10T10:14:27.929Z,95152.00
2018-11-10T10:16:59.306Z,95147.00
2018-11-10T10:19:30.250Z,95145.00
2018-11-10T10:22:03.911Z,95138.00
2018-11-10T10:24:37.818Z,95143.00
2018-11-10T10:30:26.351Z,95134.00
2018-11-10T10:33:16.377Z,95123.00
2018-11-10T10:35:46.937Z,95122.00
2018-11-10T10:38:17.350Z,95123.00
2018-11-10T10:40:47.674Z,95112.00
2018-11-10T10:43:18.001Z,95113.00
2018-11-10T10:45:48.842Z,95113.00
2018-11-10T10:48:19.198Z,95110.00
2018-11-10T10:50:50.232Z,95108.00
2018-11-10T10:53:20.610Z,95104.00
2018-11-10T10:55:51.010Z,95100.00
2018-11-10T10:58:21.402Z,95100.00
2018-11-10T11:00:57.566Z,95096.00
2018-11-10T11:03:33.869Z,95104.00
2018-11-10T11:06:08.143Z,95091.00
2018-11-10T11:08:38.755Z,95097.00
2018-11-10T11:11:09.602Z,95094.00
2018-11-10T11:13:39.983Z,95090.00
2018-11-10T11:16:10.354Z,95094.00
2018-11-10T11:18:41.223Z,95090.00
2018-11-10T11:21:11.878Z,95097.00
2018-11-10T11:23:42.313Z,95099.00
2018-11-10T11:26:19.593Z,95018.00
2018-11-10T11:28:53.136Z,95096.00
2018-11-10T11:31:24.969Z,95086.00
2018-11-10T11:33:55.338Z,95085.00
2018-11-10T11:36:26.786Z,95081.00
2018-11-10T11:38:57.249Z,95074.00
2018-11-10T11:41:27.851Z,95081.00
2018-11-10T11:43:58.147Z,95080.00
2018-11-10T11:46:29.828Z,95076.00
2018-11-10T11:49:00.254Z,95080.00
2018-11-10T11:51:30.626Z,95075.00
2018-11-10T11:54:09.135Z,95067.00
2018-11-10T11:56:47.895Z,95065.00
2018-11-10T11:59:19.688Z,95064.00
2018-11-10T12:01:55.234Z,95064.00
2018-11-10T12:04:29.707Z,95078.00
2018-11-10T12:07:00.183Z,95077.00
2018-11-10T12:09:30.674Z,95072.00
2018-11-10T12:12:01.160Z,95063.00
2018-11-10T12:14:32.566Z,95046.00
2018-11-10T12:17:04.901Z,95052.00
2018-11-10T12:19:36.353Z,95060.00
2018-11-10T12:22:10.923Z,95054.00
2018-11-10T12:24:43.206Z,95062.00
2018-11-10T12:27:24.700Z,95066.00
2018-11-10T12:30:07.915Z,95060.00
2018-11-10T12:32:38.754Z,95070.00
2018-11-10T12:35:26.419Z,95063.00
2018-11-10T12:37:56.770Z,95063.00
2018-11-10T12:40:30.156Z,95066.00
2018-11-10T12:43:00.703Z,95078.00
2018-11-10T12:45:32.072Z,95071.00
2018-11-10T12:48:15.366Z,95079.00
2018-11-10T12:50:48.269Z,95075.00
2018-11-10T12:53:18.936Z,95079.00
2018-11-10T12:55:49.998Z,95074.00
2018-11-10T12:58:20.423Z,95067.00
2018-11-10T13:00:51.066Z,95081.00
2018-11-10T13:06:29.446Z,95075.00
2018-11-10T13:09:02.461Z,95071.00
2018-11-10T13:11:35.546Z,95062.00
2018-11-10T13:14:10.769Z,95067.00
2018-11-10T13:16:43.191Z,95072.00
2018-11-10T13:19:16.607Z,95069.00
2018-11-10T13:21:48.408Z,95075.00
2018-11-10T13:24:25.397Z,95166.00
2018-11-10T13:26:57.480Z,95071.00
2018-11-10T13:29:28.763Z,95065.00
2018-11-10T13:32:01.639Z,95080.00
2018-11-10T13:34:33.869Z,95070.00
2018-11-10T13:37:04.831Z,95077.00
2018-11-10T13:39:36.022Z,95078.00
2018-11-10T13:42:07.416Z,95073.00
2018-11-10T13:44:38.661Z,95061.00
2018-11-10T13:47:10.130Z,95063.00
2018-11-10T13:49:42.088Z,95068.00
2018-11-10T13:52:14.554Z,95067.00
2018-11-10T13:54:46.220Z,95064.00
2018-11-10T13:57:17.571Z,95077.00
2018-11-10T13:59:48.579Z,95068.00
2018-11-10T14:02:20.062Z,95072.00
2018-11-10T14:04:52.715Z,95077.00
2018-11-10T14:07:24.443Z,95079.00
2018-11-10T14:09:55.983Z,95071.00
2018-11-10T14:12:27.219Z,95072.00
2018-11-10T14:14:59.263Z,95081.00
2018-11-10T14:17:30.071Z,95084.00
2018-11-10T14:20:02.985Z,95089.00
2018-11-10T14:22:34.543Z,95091.00
2018-11-10T14:25:07.915Z,95085.00
2018-11-10T14:27:39.586Z,95085.00
2018-11-10T14:30:15.280Z,95091.00
2018-11-10T14:32:46.936Z,95088.00
2018-11-10T14:35:18.862Z,95078.00
2018-11-10T14:37:49.726Z,95080.00
2018-11-10T14:40:20.441Z,95084.00
2018-11-10T14:42:52.863Z,95084.00
2018-11-10T14:45:27.210Z,95105.00
2018-11-10T14:48:02.759Z,95087.00
2018-11-10T14:50:35.843Z,95086.00
2018-11-10T14:53:10.114Z,95096.00
2018-11-10T14:55:44.255Z,95093.00
2018-11-10T14:58:20.675Z,95098.00
2018-11-10T15:00:52.427Z,95101.00
2018-11-10T15:03:51.315Z,95105.00
2018-11-10T15:06:55.693Z,95107.00
2018-11-10T15:09:29.361Z,95105.00
2018-11-10T15:12:02.356Z,95108.00
2018-11-10T15:14:33.864Z,95101.00
2018-11-10T15:17:05.904Z,95108.00
2018-11-10T15:19:38.220Z,95107.00
2018-11-10T15:22:09.508Z,95112.00
2018-11-10T15:24:39.986Z,95109.00
2018-11-10T15:27:15.247Z,95114.00
2018-11-10T15:29:45.864Z,95123.00
2018-11-10T15:32:17.636Z,94569.00
2018-11-10T15:34:49.612Z,95117.00
2018-11-10T15:37:21.331Z,95123.00
2018-11-10T15:39:52.502Z,95111.00
2018-11-10T15:42:25.282Z,95117.00
2018-11-10T15:44:59.430Z,95120.00
2018-11-10T15:47:34.986Z,95126.00
2018-11-10T15:50:09.080Z,95128.00
2018-11-10T15:52:41.262Z,95133.00
2018-11-10T15:55:18.420Z,95126.00
2018-11-10T15:57:51.407Z,95115.00
2018-11-10T16:00:22.902Z,95127.00
2018-11-10T16:02:55.843Z,95114.00
2018-11-10T16:05:31.816Z,95117.00
2018-11-10T16:08:03.835Z,95119.00
2018-11-10T16:10:35.095Z,95123.00
2018-11-10T16:13:05.945Z,95125.00
2018-11-10T16:15:40.573Z,95123.00
2018-11-10T16:18:11.774Z,95114.00
2018-11-10T16:20:43.651Z,95111.00
2018-11-10T16:23:15.814Z,95120.00
2018-11-10T16:25:48.539Z,95117.00
2018-11-10T16:28:19.981Z,95123.00
2018-11-10T16:30:56.854Z,95119.00
2018-11-10T16:33:28.588Z,95126.00
2018-11-10T16:36:03.720Z,95125.00
2018-11-10T16:38:37.445Z,95140.00
2018-11-10T16:41:13.189Z,95141.00
2018-11-10T16:43:45.912Z,95137.00
2018-11-10T16:46:19.710Z,95131.00
2018-11-10T16:48:51.699Z,95135.00
2018-11-10T16:51:24.091Z,95138.00
2018-11-10T16:53:57.455Z,95140.00
2018-11-10T16:56:29.824Z,95145.00
2018-11-10T16:59:02.956Z,95133.00
2018-11-10T17:01:35.285Z,95145.00
2018-11-10T17:04:07.060Z,95150.00
2018-11-10T17:06:38.696Z,95142.00
2018-11-10T17:09:12.986Z,95153.00
2018-11-10T17:11:45.786Z,95142.00
2018-11-10T17:14:20.392Z,95138.00
2018-11-10T17:16:52.619Z,95139.00
2018-11-10T17:19:25.876Z,95128.00
2018-11-10T17:21:58.176Z,95134.00
2018-11-10T17:24:30.203Z,95131.00
2018-11-10T17:27:01.101Z,95144.00
2018-11-10T17:29:31.484Z,95144.00
2018-11-10T17:32:02.249Z,95150.00
2018-11-10T17:34:32.805Z,95150.00
2018-11-10T17:37:03.174Z,95147.00
2018-11-10T17:39:33.663Z,95148.00
2018-11-10T17:42:04.230Z,95143.00
2018-11-10T17:44:41.306Z,95137.00
2018-11-10T17:47:11.711Z,95147.00
2018-11-10T17:49:42.221Z,95144.00
2018-11-10T17:52:12.810Z,95141.00
2018-11-10T17:54:43.415Z,95144.00
2018-11-10T17:57:14.008Z,95131.00
2018-11-10T17:59:51.327Z,95132.00
2018-11-10T18:02:21.964Z,94565.00
2018-11-10T18:04:52.407Z,95126.00
2018-11-10T18:07:22.858Z,95130.00
2018-11-10T18:09:53.554Z,95129.00
2018-11-10T18:12:24.057Z,95131.00
2018-11-10T18:14:54.609Z,95128.00
2018-11-10T18:17:25.236Z,95144.00
2018-11-10T18:19:55.713Z,95125.00
2018-11-10T18:22:26.337Z,95129.00
2018-11-10T18:24:56.962Z,95133.00
2018-11-10T18:27:27.545Z,95126.00
2018-11-10T18:29:58.210Z,95129.00
2018-11-10T18:32:28.775Z,95128.00
2018-11-10T18:34:59.253Z,95135.00
2018-11-10T18:37:29.857Z,95135.00
2018-11-10T18:40:00.603Z,95141.00
2018-11-10T18:42:32.151Z,95147.00
2018-11-10T18:45:03.063Z,95176.00
2018-11-10T18:47:33.604Z,95153.00
2018-11-10T18:50:05.330Z,95152.00
2018-11-10T18:52:35.797Z,95160.00
2018-11-10T18:55:06.791Z,95176.00
2018-11-10T18:57:37.515Z,95147.00
2018-11-10T19:00:11.815Z,95136.00
2018-11-10T19:02:42.323Z,95156.00
2018-11-10T19:05:14.617Z,95140.00
2018-11-10T19:07:45.326Z,95141.00
2018-11-10T19:10:17.355Z,95139.00
2018-11-10T19:12:49.996Z,95138.00
2018-11-10T19:15:21.494Z,95145.00
2018-11-10T19:17:52.153Z,95136.00
2018-11-10T19:20:22.886Z,95131.00
2018-11-10T19:22:53.483Z,95135.00
2018-11-10T19:25:24.172Z,95140.00
2018-11-10T19:27:54.822Z,95131.00
2018-11-10T19:30:26.413Z,95131.00
2018-11-10T19:32:57.163Z,95139.00
2018-11-10T19:35:27.719Z,95139.00
2018-11-10T19:37:58.414Z,95142.00
2018-11-10T19:40:29.034Z,95137.00
2018-11-10T19:42:59.570Z,95147.00
2018-11-10T19:45:30.126Z,95154.00
2018-11-10T19:48:00.649Z,95142.00
2018-11-10T19:50:31.298Z,95139.00
2018-11-10T19:53:01.727Z,95143.00
2018-11-10T19:55:32.315Z,95143.00
2018-11-10T19:58:02.954Z,95149.00
2018-11-10T20:00:35.672Z,95144.00
2018-11-10T20:03:06.940Z,95173.00
2018-11-10T20:05:37.522Z,95129.00
2018-11-10T20:08:07.961Z,95135.00
2018-11-10T20:10:40.981Z,95132.00
2018-11-10T20:13:11.629Z,95129.00
2018-11-10T20:15:50.012Z,95130.00
2018-11-10T20:18:22.778Z,95124.00
2018-11-10T20:20:58.380Z,95132.00
2018-11-10T20:23:29.917Z,95121.00
2018-11-10T20:26:02.715Z,95122.00
2018-11-10T20:28:35.236Z,95127.00
2018-11-10T20:31:06.805Z,95123.00
2018-11-10T20:33:38.728Z,95126.00
2018-11-10T20:36:10.100Z,95113.00
2018-11-10T20:38:41.611Z,95121.00
2018-11-10T20:41:13.611Z,95128.00
2018-11-10T20:43:45.638Z,95122.00
2018-11-10T20:46:17.724Z,95113.00
2018-11-10T20:48:49.223Z,95101.00
2018-11-10T20:51:22.035Z,95103.00
2018-11-10T20:53:53.985Z,95101.00
2018-11-10T20:56:26.808Z,95117.00
2018-11-10T20:58:57.985Z,95112.00
2018-11-10T21:01:29.210Z,95116.00
2018-11-10T21:04:01.022Z,95110.00
2018-11-10T21:06:32.531Z,95117.00
2018-11-10T21:09:04.665Z,95111.00
2018-11-10T21:11:35.960Z,95099.00
2018-11-10T21:14:08.898Z,95094.00
2018-11-10T21:16:40.356Z,95102.00
2018-11-10T21:19:14.298Z,95110.00
2018-11-10T21:21:48.584Z,95156.00
2018-11-10T21:24:22.361Z,95115.00
2018-11-10T21:26:55.373Z,95108.00
2018-11-10T21:29:28.503Z,95106.00
2018-11-10T21:31:59.413Z,95109.00
2018-11-10T21:34:31.430Z,95102.00
2018-11-10T21:37:03.383Z,95109.00
2018-11-10T21:39:35.221Z,95089.00
2018-11-10T21:42:08.010Z,95076.00
2018-11-10T21:44:39.368Z,95075.00
2018-11-10T21:47:11.063Z,95088.00
2018-11-10T21:49:43.069Z,95095.00
2018-11-10T21:52:14.952Z,95092.00
2018-11-10T21:54:47.196Z,95103.00
2018-11-10T21:57:18.561Z,95104.00
2018-11-10T21:59:50.594Z,95110.00
2018-11-10T22:02:28.993Z,95114.00
2018-11-10T22:05:00.773Z,95134.00
2018-11-10T22:07:33.400Z,95122.00
2018-11-10T22:10:06.334Z,95132.00
2018-11-10T22:12:38.173Z,95135.00
2018-11-10T22:15:15.221Z,95146.00
2018-11-10T22:17:46.574Z,95142.00
2018-11-10T22:20:22.804Z,95144.00
2018-11-10T22:22:53.781Z,95137.00
2018-11-10T22:25:25.812Z,95125.00
2018-11-10T22:27:56.784Z,95123.00
2018-11-10T22:30:27.477Z,95110.00
2018-11-10T22:32:58.308Z,95110.00
2018-11-10T22:35:29.049Z,95105.00
2018-11-10T22:37:59.929Z,95124.00
2018-11-10T22:40:31.914Z,95102.00
2018-11-10T22:43:02.744Z,95095.00
2018-11-10T22:45:34.206Z,95095.00
2018-11-10T22:48:05.173Z,95092.00
2018-11-10T22:50:36.403Z,95098.00
2018-11-10T22:53:09.160Z,94886.00
2018-11-10T22:55:40.201Z,95105.00
2018-11-10T22:58:11.102Z,95107.00
2018-11-10T23:00:47.708Z,95102.00
2018-11-10T23:03:20.257Z,95107.00
2018-11-10T23:05:51.360Z,95106.00
2018-11-10T23:08:22.532Z,95115.00
2018-11-10T23:10:56.210Z,95114.00
2018-11-10T23:13:28.443Z,95127.00
2018-11-10T23:15:59.947Z,95163.00
2018-11-10T23:18:31.149Z,95140.00
2018-11-10T23:21:02.213Z,95138.00
2018-11-10T23:23:34.794Z,95131.00
2018-11-10T23:26:09.328Z,95138.00
2018-11-10T23:28:41.048Z,95145.00
2018-11-10T23:31:11.943Z,95137.00
2018-11-10T23:33:42.932Z,95140.00
2018-11-10T23:36:15.054Z,95137.00
2018-11-10T23:38:46.749Z,95126.00
2018-11-10T23:41:17.940Z,95128.00
2018-11-10T23:43:53.890Z,95134.00
2018-11-10T23:46:31.179Z,95141.00
2018-11-10T23:49:02.993Z,95162.00
2018-11-10T23:51:33.633Z,95157.00
2018-11-10T23:54:04.832Z,95172.00
2018-11-10T23:56:36.142Z,95188.00
2018-11-10T23:59:07.937Z,95173.00
